Time;durP1;ratioP1;P1;durP2;ratioP2;P2;SDS_P1;SDS_P2;PMS_P1;PMS_P2;Temp;Humidity;BMP_temperature;BMP_pressure;BME280_temperature;BME280_humidity;BME280_pressure;Samples;Min_cycle;Max_cycle;Signal;HPM_P1;HPM_P2
2023/04/14 00:00:12;;;;;;;3.70;1.30;;;5.60;26.40;;;;;;5052278;28;20040;-65
2023/04/14 00:02:37;;;;;;;2.20;0.90;;;5.60;24.50;;;;;;5052567;28;20041;-65
2023/04/14 00:05:03;;;;;;;3.75;0.90;;;5.60;21.40;;;;;;5052464;28;20440;-65
2023/04/14 00:07:29;;;;;;;2.65;1.02;;;5.60;19.70;;;;;;5034307;28;20148;-65
2023/04/14 00:09:54;;;;;;;4.10;1.05;;;5.60;11.20;;;;;;5052449;28;20053;-65
2023/04/14 00:12:20;;;;;;;3.70;1.23;;;5.60;13.50;;;;;;5052345;28;20036;-65
2023/04/14 00:14:46;;;;;;;4.50;1.30;;;5.60;1.00;;;;;;5052042;28;20052;-65
2023/04/14 00:17:11;;;;;;;5.22;0.85;;;5.70;1.00;;;;;;5052395;28;20473;-65
2023/04/14 00:19:37;;;;;;;2.40;1.10;;;5.60;1.00;;;;;;5055293;28;20396;-66
2023/04/14 00:22:02;;;;;;;2.38;0.82;;;5.60;1.00;;;;;;5056025;28;20123;-65
2023/04/14 00:24:28;;;;;;;6.03;1.27;;;5.60;1.00;;;;;;5055694;28;20378;-65
2023/04/14 00:26:53;;;;;;;2.10;1.58;;;5.60;1.00;;;;;;5056008;28;20036;-65
2023/04/14 00:29:19;;;;;;;2.08;0.80;;;5.50;2.40;;;;;;5055921;28;20035;-65
2023/04/14 00:31:45;;;;;;;4.07;1.63;;;5.50;5.60;;;;;;5055941;28;20392;-65
2023/04/14 00:34:10;;;;;;;1.80;1.20;;;5.40;9.00;;;;;;5021237;28;20102;-65
2023/04/14 00:36:36;;;;;;;1.95;0.95;;;5.40;14.20;;;;;;5055929;28;20116;-65
2023/04/14 00:39:03;;;;;;;4.10;1.02;;;5.40;11.10;;;;;;5055851;28;20040;-65
2023/04/14 00:41:35;;;;;;;4.07;0.88;;;5.30;13.10;;;;;;5055720;28;20083;-65
2023/04/14 00:44:01;;;;;;;3.25;1.00;;;5.30;17.70;;;;;;5056287;28;20139;-64
2023/04/14 00:46:28;;;;;;;4.28;1.10;;;5.40;6.40;;;;;;5055430;28;20479;-64
2023/04/14 00:48:56;;;;;;;5.18;1.88;;;5.40;1.00;;;;;;5055398;28;20045;-64
2023/04/14 00:51:23;;;;;;;2.58;1.10;;;5.40;1.00;;;;;;5055618;28;20029;-64
2023/04/14 00:53:50;;;;;;;8.77;1.00;;;5.40;1.00;;;;;;5055513;28;20043;-64
2023/04/14 00:56:16;;;;;;;0.98;0.77;;;5.40;5.70;;;;;;5055405;28;20083;-64
2023/04/14 00:58:41;;;;;;;2.70;0.80;;;5.40;5.80;;;;;;5055514;28;20401;-64
2023/04/14 01:01:07;;;;;;;4.90;0.65;;;5.30;17.10;;;;;;5055410;28;20060;-64
2023/04/14 01:03:35;;;;;;;2.25;1.27;;;5.30;1.00;;;;;;5055414;28;20036;-66
2023/04/14 01:06:01;;;;;;;4.43;1.17;;;5.30;1.00;;;;;;5020838;28;20041;-64
2023/04/14 01:08:27;;;;;;;4.90;0.77;;;5.30;1.00;;;;;;5055181;28;20567;-64
2023/04/14 01:11:26;;;;;;;2.13;0.57;;;5.30;1.00;;;;;;5054839;28;20159;-64
2023/04/14 01:13:54;;;;;;;1.70;0.88;;;4.90;7.50;;;;;;5036850;28;20056;-64
2023/04/14 01:16:33;;;;;;;1.58;0.82;;;5.20;23.30;;;;;;5055093;28;20539;-64
2023/04/14 01:19:05;;;;;;;1.35;0.77;;;5.20;18.80;;;;;;5055098;28;20516;-65
2023/04/14 01:21:35;;;;;;;1.60;0.80;;;5.10;24.40;;;;;;5055040;28;20408;-64
2023/04/14 01:24:36;;;;;;;5.60;0.95;;;5.10;35.80;;;;;;5036906;28;20425;-64
2023/04/14 01:27:10;;;;;;;6.75;1.30;;;5.10;27.80;;;;;;5054833;28;20090;-64
2023/04/14 01:30:01;;;;;;;2.83;0.70;;;5.10;17.90;;;;;;5054098;28;20041;-64
2023/04/14 01:32:28;;;;;;;;;;;5.10;24.30;;;;;;5055279;28;20048;-64
2023/04/14 01:34:56;;;;;;;3.08;0.60;;;5.10;25.60;;;;;;5054692;28;20003;-64
2023/04/14 01:37:33;;;;;;;1.80;0.70;;;5.10;25.00;;;;;;5054675;28;20041;-64
2023/04/14 01:40:04;;;;;;;2.28;0.93;;;5.10;33.20;;;;;;5054659;28;20112;-64
2023/04/14 01:42:34;;;;;;;0.98;0.60;;;5.00;37.40;;;;;;5054317;28;20037;-64
2023/04/14 01:45:24;;;;;;;2.63;0.75;;;5.00;37.80;;;;;;5054576;28;20052;-64
2023/04/14 01:47:51;;;;;;;5.15;0.90;;;5.00;37.90;;;;;;5035991;28;20063;-64
2023/04/14 01:50:18;;;;;;;2.35;0.75;;;5.00;36.40;;;;;;5054473;28;20143;-64
2023/04/14 01:52:46;;;;;;;2.03;0.88;;;5.00;38.80;;;;;;5054433;28;20134;-64
2023/04/14 01:55:17;;;;;;;2.70;0.95;;;5.00;34.60;;;;;;5036204;28;20041;-64
2023/04/14 01:57:44;;;;;;;3.92;1.23;;;5.00;35.50;;;;;;5036578;28;20058;-64
2023/04/14 02:00:11;;;;;;;2.25;1.10;;;5.10;31.90;;;;;;5053924;28;20048;-66
2023/04/14 02:02:40;;;;;;;7.30;1.35;;;5.10;37.10;;;;;;5054246;28;20500;-64
2023/04/14 02:05:08;;;;;;;4.82;1.25;;;5.10;37.50;;;;;;5054035;28;20060;-64
2023/04/14 02:07:35;;;;;;;4.78;1.00;;;5.10;38.60;;;;;;5053745;28;20051;-64
2023/04/14 02:10:04;;;;;;;5.20;1.00;;;5.10;51.00;;;;;;5054108;28;20037;-64
2023/04/14 02:12:30;;;;;;;4.75;1.10;;;5.10;37.20;;;;;;5053773;28;20090;-64
2023/04/14 02:14:58;;;;;;;1.75;0.95;;;5.10;54.30;;;;;;5053664;28;20044;-64
2023/04/14 02:17:24;;;;;;;2.53;0.95;;;5.10;57.40;;;;;;5053925;28;20460;-64
2023/04/14 02:19:53;;;;;;;3.38;1.17;;;5.10;60.50;;;;;;5053540;28;20040;-64
2023/04/14 02:22:18;;;;;;;1.80;0.85;;;5.10;73.20;;;;;;5036061;28;20115;-64
2023/04/14 02:24:46;;;;;;;5.43;0.95;;;5.10;55.80;;;;;;5053484;28;20033;-64
2023/04/14 02:27:30;;;;;;;4.75;0.80;;;5.10;39.80;;;;;;5053376;28;20120;-64
2023/04/14 02:29:58;;;;;;;2.15;1.00;;;5.20;35.90;;;;;;5053455;28;20033;-64
2023/04/14 02:32:28;;;;;;;3.00;1.00;;;5.20;35.10;;;;;;5053310;28;20041;-64
2023/04/14 02:35:05;;;;;;;3.72;0.88;;;5.20;40.70;;;;;;5035413;28;20087;-64
2023/04/14 02:37:36;;;;;;;2.75;0.90;;;5.20;40.30;;;;;;5053539;28;20128;-64
2023/04/14 02:40:33;;;;;;;6.88;0.68;;;5.20;41.80;;;;;;5053452;28;20120;-64
2023/04/14 02:43:21;;;;;;;5.32;0.93;;;5.20;42.40;;;;;;5051994;28;20056;-64
2023/04/14 02:45:49;;;;;;;2.05;0.98;;;5.20;47.90;;;;;;5053522;28;20048;-66
2023/04/14 02:48:17;;;;;;;7.75;1.17;;;5.30;63.10;;;;;;5035186;28;20128;-65
2023/04/14 02:50:47;;;;;;;1.13;0.75;;;5.20;52.10;;;;;;5053408;28;20037;-65
2023/04/14 02:53:17;;;;;;;2.40;0.88;;;5.20;52.80;;;;;;5052278;28;20086;-65
2023/04/14 02:55:46;;;;;;;4.78;0.80;;;5.20;60.50;;;;;;5053596;28;20044;-66
2023/04/14 02:58:12;;;;;;;2.63;0.73;;;5.20;59.00;;;;;;5052904;28;20048;-66
2023/04/14 03:00:40;;;;;;;2.38;0.70;;;5.20;47.30;;;;;;5053130;28;20119;-65
2023/04/14 03:03:07;;;;;;;2.35;0.70;;;5.30;45.40;;;;;;5053226;28;20044;-65
2023/04/14 03:05:34;;;;;;;1.98;0.88;;;5.20;44.40;;;;;;5052755;28;20049;-65
2023/04/14 03:08:01;;;;;;;4.75;0.88;;;5.30;54.80;;;;;;5053073;28;20052;-65
2023/04/14 03:10:27;;;;;;;3.90;1.08;;;5.20;56.70;;;;;;5034800;28;20457;-65
2023/04/14 03:12:55;;;;;;;1.33;0.68;;;5.40;53.00;;;;;;5053096;28;20390;-65
2023/04/14 03:15:22;;;;;;;1.92;0.77;;;5.20;53.10;;;;;;5052531;28;20071;-65
2023/04/14 03:17:52;;;;;;;1.20;0.95;;;5.20;56.30;;;;;;5052675;28;20048;-65
2023/04/14 03:20:20;;;;;;;7.47;1.00;;;5.10;56.00;;;;;;5052912;28;20048;-65
2023/04/14 03:22:48;;;;;;;3.00;0.93;;;5.10;57.70;;;;;;5052906;28;20441;-65
2023/04/14 03:25:14;;;;;;;2.35;0.95;;;5.10;62.30;;;;;;5052839;28;20048;-67
2023/04/14 03:27:42;;;;;;;1.52;1.02;;;5.10;56.90;;;;;;5052807;28;20049;-65
2023/04/14 03:30:12;;;;;;;1.77;0.70;;;5.00;59.40;;;;;;5052760;28;20032;-65
2023/04/14 03:32:40;;;;;;;0.75;0.65;;;5.00;63.10;;;;;;5052789;28;20048;-65
2023/04/14 03:35:08;;;;;;;2.63;0.95;;;5.00;68.30;;;;;;5052550;28;20037;-65
2023/04/14 03:37:38;;;;;;;2.28;1.20;;;5.00;74.60;;;;;;5052716;28;20044;-65
2023/04/14 03:40:07;;;;;;;3.80;1.02;;;5.10;79.10;;;;;;5052671;28;20407;-65
2023/04/14 03:42:35;;;;;;;2.13;0.88;;;5.10;75.10;;;;;;5034732;28;20052;-65
2023/04/14 03:45:02;;;;;;;1.58;1.10;;;5.10;75.30;;;;;;5052372;28;20041;-65
2023/04/14 03:47:30;;;;;;;1.77;1.10;;;5.10;72.10;;;;;;5052304;28;20071;-65
2023/04/14 03:50:00;;;;;;;1.38;0.90;;;5.10;72.90;;;;;;5052591;28;20040;-65
2023/04/14 03:52:30;;;;;;;2.78;1.30;;;5.10;82.90;;;;;;5019353;28;20449;-65
2023/04/14 03:54:58;;;;;;;2.33;1.00;;;5.10;76.20;;;;;;5056360;28;20042;-66
2023/04/14 03:57:28;;;;;;;1.95;0.93;;;5.10;75.70;;;;;;5056593;28;20032;-65
2023/04/14 03:59:54;;;;;;;1.40;1.02;;;5.10;78.10;;;;;;5056491;28;20098;-65
2023/04/14 04:02:21;;;;;;;2.05;1.25;;;5.00;80.80;;;;;;5056393;28;20036;-65
2023/04/14 04:04:47;;;;;;;2.55;1.10;;;5.00;83.20;;;;;;5056080;28;20115;-65
2023/04/14 04:07:14;;;;;;;1.15;0.80;;;5.00;89.30;;;;;;5056330;28;20063;-65
2023/04/14 04:09:42;;;;;;;3.15;1.00;;;4.90;91.00;;;;;;5056011;28;20037;-65
2023/04/14 04:12:10;;;;;;;2.05;0.90;;;4.90;93.40;;;;;;5056317;28;20056;-65
2023/04/14 04:14:39;;;;;;;2.75;0.90;;;4.80;94.00;;;;;;5040966;28;20072;-66
2023/04/14 04:17:07;;;;;;;3.50;1.00;;;4.70;94.60;;;;;;5056433;28;20036;-65
2023/04/14 04:19:34;;;;;;;2.90;1.10;;;4.70;95.80;;;;;;5056135;28;20116;-66
2023/04/14 04:22:01;;;;;;;4.22;1.13;;;4.60;97.90;;;;;;5056185;28;20045;-66
2023/04/14 04:24:30;;;;;;;1.48;0.75;;;4.50;99.70;;;;;;5056022;28;20037;-66
2023/04/14 04:26:57;;;;;;;2.08;1.20;;;4.50;98.90;;;;;;5056012;28;20045;-67
2023/04/14 04:29:23;;;;;;;1.98;1.42;;;4.30;99.20;;;;;;5056005;28;20400;-65
2023/04/14 04:31:49;;;;;;;1.40;0.95;;;4.40;98.50;;;;;;5055936;28;20033;-65
2023/04/14 04:34:17;;;;;;;6.60;1.38;;;4.40;97.40;;;;;;5056023;28;20033;-65
2023/04/14 04:36:43;;;;;;;4.90;1.60;;;4.50;98.30;;;;;;5056062;28;20417;-66
2023/04/14 04:39:09;;;;;;;2.28;1.15;;;4.30;96.40;;;;;;5055690;28;20083;-65
2023/04/14 04:41:34;;;;;;;3.38;1.05;;;4.30;96.80;;;;;;5055503;28;20258;-65
2023/04/14 04:44:00;;;;;;;2.67;1.20;;;4.30;99.00;;;;;;5055880;28;20049;-66
2023/04/14 04:46:50;;;;;;;3.78;1.80;;;4.20;98.70;;;;;;5055410;28;20049;-65
2023/04/14 04:49:16;;;;;;;1.20;0.90;;;4.20;99.90;;;;;;5055573;28;20041;-65
2023/04/14 04:51:42;;;;;;;2.10;1.02;;;4.10;98.70;;;;;;5055329;28;20500;-65
2023/04/14 04:54:08;;;;;;;1.75;1.13;;;4.10;97.80;;;;;;5055503;28;20079;-65
2023/04/14 04:56:34;;;;;;;5.35;0.93;;;4.70;98.30;;;;;;5055500;28;20420;-66
2023/04/14 04:59:00;;;;;;;2.20;1.00;;;4.10;99.90;;;;;;5053913;28;20049;-66
2023/04/14 05:01:26;;;;;;;2.78;0.93;;;4.10;99.90;;;;;;5055447;28;20455;-65
2023/04/14 05:03:51;;;;;;;1.55;0.90;;;4.10;99.90;;;;;;5054455;28;20037;-65
2023/04/14 05:06:17;;;;;;;2.95;0.95;;;4.10;99.90;;;;;;5055352;28;20500;-65
2023/04/14 05:08:43;;;;;;;2.63;1.13;;;4.10;99.90;;;;;;5055323;28;20041;-66
2023/04/14 05:11:08;;;;;;;1.30;1.00;;;4.10;99.90;;;;;;5055255;28;20539;-66
2023/04/14 05:13:34;;;;;;;3.47;1.40;;;4.10;99.90;;;;;;5055237;28;20667;-67
2023/04/14 05:16:03;;;;;;;3.20;1.67;;;4.10;99.90;;;;;;5053344;28;20114;-67
2023/04/14 05:18:30;;;;;;;2.92;1.50;;;4.20;99.90;;;;;;5036951;28;20087;-67
2023/04/14 05:21:00;;;;;;;5.68;1.67;;;4.10;99.90;;;;;;5054797;28;20055;-66
2023/04/14 05:23:26;;;;;;;1.77;1.10;;;4.10;99.90;;;;;;5055071;28;20508;-66
2023/04/14 05:25:55;;;;;;;2.83;1.23;;;4.10;99.90;;;;;;5055044;28;20450;-66
2023/04/14 05:28:21;;;;;;;1.80;1.17;;;4.20;99.90;;;;;;5053376;28;20410;-68
2023/04/14 05:30:47;;;;;;;2.40;1.02;;;4.20;99.90;;;;;;5054583;28;20119;-68
2023/04/14 05:33:12;;;;;;;2.33;1.30;;;4.30;99.90;;;;;;5053304;28;20041;-68
2023/04/14 05:35:38;;;;;;;2.85;1.45;;;4.30;99.90;;;;;;5054781;28;20424;-68
2023/04/14 05:38:04;;;;;;;5.70;1.40;;;4.30;99.90;;;;;;5054503;28;20086;-65
2023/04/14 05:40:32;;;;;;;2.15;0.98;;;4.30;99.90;;;;;;5054687;28;20087;-67
2023/04/14 05:42:57;;;;;;;5.68;1.83;;;4.40;99.90;;;;;;5054632;28;20067;-67
2023/04/14 05:45:24;;;;;;;2.22;1.30;;;4.50;99.90;;;;;;5036427;28;20033;-64
2023/04/14 05:47:50;;;;;;;3.50;1.38;;;4.60;99.90;;;;;;5054512;28;20053;-65
2023/04/14 05:50:15;;;;;;;2.10;1.38;;;4.60;99.90;;;;;;5054552;28;20408;-65
2023/04/14 05:52:41;;;;;;;2.45;1.27;;;4.80;99.90;;;;;;5054524;28;20476;-66
2023/04/14 05:55:07;;;;;;;3.20;1.55;;;4.90;99.90;;;;;;5054383;28;20039;-66
2023/04/14 05:57:33;;;;;;;2.35;1.20;;;5.00;99.90;;;;;;5069517;28;20489;-66
2023/04/14 05:59:59;;;;;;;1.80;0.88;;;5.10;99.90;;;;;;5053091;28;20453;-66
2023/04/14 06:02:25;;;;;;;2.17;1.17;;;5.30;99.90;;;;;;5054278;28;20120;-65
2023/04/14 06:04:50;;;;;;;4.47;1.55;;;5.50;99.80;;;;;;5052836;28;20041;-66
2023/04/14 06:07:16;;;;;;;4.28;1.40;;;5.60;97.50;;;;;;5053878;28;20484;-66
2023/04/14 06:09:42;;;;;;;3.00;1.60;;;5.90;94.60;;;;;;5054303;28;20032;-67
2023/04/14 06:12:08;;;;;;;2.25;1.30;;;5.90;94.80;;;;;;5054041;28;20117;-66
2023/04/14 06:14:33;;;;;;;3.65;1.30;;;6.00;94.20;;;;;;5053891;28;20041;-66
2023/04/14 06:16:59;;;;;;;2.42;1.20;;;6.20;92.80;;;;;;5053643;28;20067;-66
2023/04/14 06:19:25;;;;;;;2.45;1.17;;;6.30;92.00;;;;;;5053612;28;20041;-65
2023/04/14 06:21:51;;;;;;;3.67;1.40;;;6.50;88.60;;;;;;5035992;28;20119;-65
2023/04/14 06:24:16;;;;;;;4.30;1.13;;;6.70;77.40;;;;;;5053693;28;20029;-65
2023/04/14 06:26:42;;;;;;;2.22;1.05;;;6.80;55.10;;;;;;5053708;28;20124;-65
2023/04/14 06:29:08;;;;;;;3.40;1.27;;;6.90;33.20;;;;;;5053661;28;20361;-66
2023/04/14 06:31:34;;;;;;;2.65;0.98;;;7.10;26.60;;;;;;5053742;28;20029;-65
2023/04/14 06:34:00;;;;;;;3.78;1.40;;;7.30;30.00;;;;;;5053703;28;20156;-65
2023/04/14 06:36:26;;;;;;;2.13;1.05;;;7.50;24.20;;;;;;5053342;28;20131;-66
2023/04/14 06:38:51;;;;;;;3.72;1.33;;;7.60;24.40;;;;;;5053623;28;20045;-65
2023/04/14 06:41:17;;;;;;;2.65;1.25;;;7.70;35.80;;;;;;5053547;28;20037;-66
2023/04/14 06:43:43;;;;;;;2.92;1.10;;;7.90;28.30;;;;;;5053550;28;20045;-65
2023/04/14 06:46:08;;;;;;;3.15;1.20;;;8.00;22.80;;;;;;5035896;28;20469;-66
2023/04/14 06:48:34;;;;;;;2.95;1.30;;;8.20;11.50;;;;;;5051987;28;20048;-66
2023/04/14 06:51:00;;;;;;;2.83;1.30;;;8.30;8.50;;;;;;5053239;28;20063;-68
2023/04/14 06:53:26;;;;;;;3.25;1.27;;;8.40;1.00;;;;;;5053425;28;20044;-66
2023/04/14 06:55:57;;;;;;;4.10;1.55;;;8.50;1.00;;;;;;5053056;28;20051;-66
2023/04/14 06:58:32;;;;;;;1.58;0.75;;;8.70;1.00;;;;;;5053287;28;20045;-65
2023/04/14 07:00:59;;;;;;;2.60;1.10;;;8.80;1.00;;;;;;5053215;28;20108;-66
2023/04/14 07:03:27;;;;;;;1.80;1.10;;;8.90;1.00;;;;;;5053104;28;20091;-66
2023/04/14 07:05:52;;;;;;;4.50;0.90;;;9.10;1.00;;;;;;5053129;28;20033;-66
2023/04/14 07:08:19;;;;;;;1.98;0.88;;;9.20;1.00;;;;;;5052940;28;20044;-67
2023/04/14 07:10:46;;;;;;;1.92;1.00;;;9.30;1.00;;;;;;5034961;28;20416;-67
2023/04/14 07:13:12;;;;;;;4.28;1.40;;;9.40;1.00;;;;;;5052782;28;20040;-68
2023/04/14 07:15:38;;;;;;;4.75;0.77;;;9.40;1.00;;;;;;5052459;28;20052;-66
2023/04/14 07:18:04;;;;;;;4.45;1.02;;;9.60;1.00;;;;;;5052882;28;20041;-66
2023/04/14 07:20:29;;;;;;;1.73;1.05;;;9.70;1.00;;;;;;5052641;28;20047;-68
2023/04/14 07:22:55;;;;;;;3.42;1.10;;;9.80;99.90;;;;;;5034838;28;20138;-66
2023/04/14 07:25:21;;;;;;;1.90;1.00;;;10.00;99.90;;;;;;5052508;28;20503;-65
2023/04/14 07:27:47;;;;;;;1.98;0.80;;;10.40;99.90;;;;;;5017688;28;20120;-66
2023/04/14 07:30:13;;;;;;;2.30;0.80;;;10.20;99.90;;;;;;5034957;28;20147;-66
2023/04/14 07:32:39;;;;;;;5.78;1.33;;;10.20;99.90;;;;;;5052758;28;20143;-66
2023/04/14 07:35:07;;;;;;;5.97;1.42;;;10.50;99.90;;;;;;5052464;28;20239;-66
2023/04/14 07:37:33;;;;;;;2.60;1.00;;;10.30;99.90;;;;;;5052703;28;20112;-66
2023/04/14 07:39:59;;;;;;;1.45;1.02;;;10.30;1.00;;;;;;5052652;28;20087;-67
2023/04/14 07:42:25;;;;;;;2.80;0.95;;;10.40;49.70;;;;;;5052403;28;20077;-66
2023/04/14 07:44:50;;;;;;;1.15;0.60;;;10.60;99.90;;;;;;5052321;28;20052;-66
2023/04/14 07:47:16;;;;;;;5.40;0.85;;;10.70;13.10;;;;;;5052533;28;20589;-66
2023/04/14 07:49:42;;;;;;;2.47;0.82;;;10.70;1.00;;;;;;5052629;28;20442;-66
2023/04/14 07:52:07;;;;;;;4.13;0.80;;;11.60;1.00;;;;;;5052506;28;20044;-66
2023/04/14 07:54:33;;;;;;;2.63;0.77;;;11.00;1.00;;;;;;5052465;28;20053;-65
2023/04/14 07:56:59;;;;;;;6.93;1.00;;;11.10;99.90;;;;;;5034245;28;20049;-66
2023/04/14 07:59:25;;;;;;;1.60;0.70;;;11.10;99.90;;;;;;5052531;28;20511;-66
2023/04/14 08:01:50;;;;;;;3.42;0.70;;;11.20;99.90;;;;;;5052204;28;20044;-66
2023/04/14 08:04:16;;;;;;;7.03;1.00;;;11.60;99.90;;;;;;5052500;28;20056;-66
2023/04/14 08:06:42;;;;;;;3.03;0.68;;;11.30;1.00;;;;;;5052241;28;20400;-66
2023/04/14 08:09:07;;;;;;;3.85;0.68;;;11.40;1.00;;;;;;5052323;28;20040;-66
2023/04/14 08:11:33;;;;;;;2.72;0.82;;;11.80;1.00;;;;;;5052448;28;20476;-67
2023/04/14 08:13:59;;;;;;;1.02;0.70;;;11.70;77.80;;;;;;5034443;28;20036;-69
2023/04/14 08:16:25;;;;;;;1.02;0.60;;;11.80;1.00;;;;;;5034405;28;20057;-66
2023/04/14 08:18:50;;;;;;;2.05;0.80;;;12.60;99.90;;;;;;5052357;28;20064;-66
2023/04/14 08:21:16;;;;;;;3.70;0.98;;;12.20;99.90;;;;;;5052379;28;20103;-66
2023/04/14 08:23:42;;;;;;;5.18;0.60;;;12.20;1.00;;;;;;5052206;28;20504;-67
2023/04/14 08:26:07;;;;;;;2.92;0.70;;;12.70;99.90;;;;;;5052307;28;20047;-66
2023/04/14 08:28:33;;;;;;;2.10;0.75;;;;;;;;;;5052051;28;20443;-66
2023/04/14 08:30:59;;;;;;;1.65;0.90;;;;;;;;;;5052228;28;20069;-66
2023/04/14 08:33:26;;;;;;;1.85;1.10;;;;;;;;;;5051867;28;20123;-66
2023/04/14 08:35:52;;;;;;;1.90;0.68;;;;;;;;;;5052250;28;20083;-66
2023/04/14 08:38:19;;;;;;;4.95;0.75;;;;;;;;;;5052058;28;20431;-66
2023/04/14 08:40:46;;;;;;;4.35;0.85;;;;;;;;;;5055331;28;20040;-66
2023/04/14 08:43:12;;;;;;;3.92;0.93;;;;;;;;;;5055808;28;20099;-66
2023/04/14 08:45:38;;;;;;;1.42;0.50;;;;;;;;;;5037908;28;20396;-66
2023/04/14 08:48:05;;;;;;;4.03;0.88;;;;;;;;;;5037486;28;20076;-66
2023/04/14 08:50:35;;;;;;;2.35;0.70;;;;;;;;;;5055775;28;20095;-67
2023/04/14 08:53:03;;;;;;;1.95;1.05;;;;;;;;;;5055692;28;20120;-68
2023/04/14 08:55:29;;;;;;;3.72;0.88;;;;;;;;;;5037518;28;20052;-67
2023/04/14 08:57:55;;;;;;;1.58;0.70;;;;;;;;;;5055390;28;20036;-66
2023/04/14 09:00:22;;;;;;;2.17;0.52;;;;;;;;;;5055433;28;20048;-66
2023/04/14 09:02:48;;;;;;;0.95;0.80;;;;;;;;;;5055480;28;20040;-66
2023/04/14 09:05:14;;;;;;;3.22;0.98;;;;;;;;;;5055100;28;20048;-66
2023/04/14 09:07:41;;;;;;;2.50;0.70;;;;;;;;;;5037165;28;20050;-65
2023/04/14 09:10:08;;;;;;;3.47;0.80;;;;;;;;;;5055210;28;20090;-64
2023/04/14 09:12:35;;;;;;;2.75;0.95;;;;;;;;;;5055370;28;20036;-67
2023/04/14 09:15:02;;;;;;;1.70;0.60;;;;;;;;;;5043542;28;20068;-66
2023/04/14 09:17:28;;;;;;;6.32;1.38;;;;;;;;;;5054995;28;20049;-66
2023/04/14 09:19:54;;;;;;;9.18;1.10;;;;;;;;;;5054847;28;20041;-65
2023/04/14 09:22:20;;;;;;;4.07;0.90;;;;;;;;;;5055094;28;20139;-66
2023/04/14 09:24:47;;;;;;;4.10;0.77;;;;;;;;;;5053589;28;20404;-66
2023/04/14 09:27:13;;;;;;;1.10;0.57;;;;;;;;;;5054843;28;20099;-66
2023/04/14 09:29:40;;;;;;;1.08;0.70;;;;;;;;;;5055484;28;20045;-67
2023/04/14 09:32:07;;;;;;;3.72;0.95;;;;;;;;;;5053666;28;20045;-65
2023/04/14 09:34:33;;;;;;;4.75;0.77;;;;;;;;;;5054935;28;20040;-65
2023/04/14 09:37:04;;;;;;;0.73;0.55;;;13.60;99.90;;;;;;5054582;28;20036;-66
2023/04/14 09:39:34;;;;;;;1.80;0.82;;;13.60;99.90;;;;;;5053378;28;20492;-66
2023/04/14 09:42:01;;;;;;;3.13;1.00;;;13.50;1.00;;;;;;5054437;28;20123;-66
2023/04/14 09:44:27;;;;;;;5.43;1.38;;;14.00;99.90;;;;;;5054674;28;20385;-66
2023/04/14 09:46:57;;;;;;;2.00;1.00;;;13.20;99.90;;;;;;5054707;28;20033;-67
2023/04/14 09:49:23;;;;;;;3.53;0.98;;;14.40;99.90;;;;;;5054544;28;20081;-66
2023/04/14 09:51:51;;;;;;;2.40;0.90;;;13.30;99.90;;;;;;5053907;28;20041;-66
2023/04/14 09:54:26;;;;;;;2.70;0.90;;;13.20;99.90;;;;;;5054500;28;20064;-66
2023/04/14 09:56:55;;;;;;;2.70;1.40;;;13.30;99.90;;;;;;5054534;28;20443;-66
2023/04/14 09:59:35;;;;;;;4.20;1.08;;;13.50;99.90;;;;;;5054129;28;20084;-66
2023/04/14 10:02:08;;;;;;;1.90;0.97;;;13.50;99.90;;;;;;5054419;28;20123;-67
2023/04/14 10:04:35;;;;;;;2.33;1.25;;;13.50;99.90;;;;;;5054007;28;20036;-66
2023/04/14 10:07:05;;;;;;;3.30;1.30;;;14.40;99.90;;;;;;5054306;28;20071;-66
2023/04/14 10:09:34;;;;;;;2.13;1.00;;;14.60;99.90;;;;;;5054289;28;20092;-66
2023/04/14 10:12:08;;;;;;;1.45;0.98;;;14.80;99.90;;;;;;5052655;28;20053;-67
2023/04/14 10:14:35;;;;;;;5.97;1.77;;;13.80;99.90;;;;;;5053831;28;20127;-67
2023/04/14 10:17:01;;;;;;;2.85;1.35;;;13.80;99.90;;;;;;5053722;28;20124;-66
2023/04/14 10:19:28;;;;;;;1.27;0.70;;;13.80;99.90;;;;;;5054071;28;20071;-66
2023/04/14 10:21:54;;;;;;;2.50;1.25;;;13.90;99.90;;;;;;5054005;28;20037;-68
2023/04/14 10:24:20;;;;;;;4.60;1.73;;;14.30;99.90;;;;;;5053917;28;20094;-67
2023/04/14 10:26:48;;;;;;;4.05;1.30;;;14.10;99.90;;;;;;5053897;28;20033;-66
2023/04/14 10:29:15;;;;;;;3.83;1.27;;;15.10;99.90;;;;;;5053435;28;20428;-67
2023/04/14 10:31:45;;;;;;;3.63;1.10;;;14.40;99.90;;;;;;5053389;28;20144;-66
2023/04/14 10:34:12;;;;;;;9.57;1.42;;;14.40;99.90;;;;;;5053481;28;20455;-66
2023/04/14 10:36:38;;;;;;;3.97;1.20;;;14.30;99.90;;;;;;5053679;28;20123;-66
2023/04/14 10:39:05;;;;;;;2.28;1.13;;;15.10;99.90;;;;;;5053607;28;20175;-66
2023/04/14 10:41:42;;;;;;;1.55;0.80;;;14.60;99.90;;;;;;5053477;28;20037;-66
2023/04/14 10:44:26;;;;;;;6.10;1.65;;;14.50;73.40;;;;;;5053431;28;20041;-66
2023/04/14 10:46:52;;;;;;;5.50;1.20;;;14.40;12.60;;;;;;5035367;28;20390;-66
2023/04/14 10:49:28;;;;;;;2.00;1.02;;;14.40;1.00;;;;;;5053377;28;20056;-66
2023/04/14 10:51:53;;;;;;;6.97;1.52;;;14.50;81.00;;;;;;5053381;28;20500;-66
2023/04/14 10:54:19;;;;;;;2.17;1.13;;;14.60;99.90;;;;;;5053281;28;20036;-66
2023/04/14 10:57:08;;;;;;;2.80;1.17;;;14.70;99.90;;;;;;5053162;28;20045;-66
2023/04/14 10:59:34;;;;;;;3.65;1.08;;;14.80;99.90;;;;;;5053238;28;20037;-67
2023/04/14 11:01:59;;;;;;;5.90;1.05;;;15.00;98.50;;;;;;5052129;28;20395;-66
2023/04/14 11:04:25;;;;;;;9.93;1.52;;;14.70;1.00;;;;;;5053240;28;20111;-66
2023/04/14 11:06:56;;;;;;;6.57;1.65;;;14.70;4.10;;;;;;5053111;28;20117;-66
2023/04/14 11:09:30;;;;;;;2.25;1.27;;;14.70;41.80;;;;;;5053095;28;20164;-66
2023/04/14 11:12:20;;;;;;;7.07;1.20;;;15.30;79.20;;;;;;5052662;28;20044;-66
2023/04/14 11:14:46;;;;;;;1.95;1.00;;;14.90;1.00;;;;;;5039257;28;20053;-66
2023/04/14 11:17:18;;;;;;;1.85;0.93;;;;;;;;;;5051387;28;20067;-66
2023/04/14 11:19:44;;;;;;;3.78;1.10;;;15.30;1.00;;;;;;5052973;28;20396;-66
2023/04/14 11:22:10;;;;;;;2.20;1.10;;;15.30;1.00;;;;;;5053007;28;20072;-66
2023/04/14 11:24:36;;;;;;;4.03;1.23;;;15.30;1.00;;;;;;5052995;28;20041;-66
2023/04/14 11:27:01;;;;;;;1.15;0.98;;;15.40;1.00;;;;;;5052867;28;20044;-67
2023/04/14 11:29:27;;;;;;;1.35;0.80;;;15.50;99.90;;;;;;5052838;28;20083;-66
2023/04/14 11:32:05;;;;;;;3.33;1.00;;;15.40;99.90;;;;;;5052789;28;20037;-66
2023/04/14 11:34:31;;;;;;;2.70;1.05;;;15.50;99.90;;;;;;5052802;28;20048;-67
2023/04/14 11:36:57;;;;;;;9.73;1.15;;;15.40;99.90;;;;;;5051586;28;20087;-66
2023/04/14 11:39:24;;;;;;;4.43;1.58;;;15.20;99.90;;;;;;5053255;28;20392;-65
2023/04/14 11:41:50;;;;;;;5.20;1.42;;;15.00;99.90;;;;;;5052712;28;20036;-65
2023/04/14 11:44:19;;;;;;;4.60;0.95;;;15.10;99.90;;;;;;5052482;28;20116;-64
2023/04/14 11:46:45;;;;;;;2.15;0.77;;;15.10;99.90;;;;;;5052620;28;20393;-65
2023/04/14 11:49:11;;;;;;;2.80;1.15;;;14.90;99.90;;;;;;5052412;28;20036;-66
2023/04/14 11:51:37;;;;;;;1.70;0.75;;;15.70;99.90;;;;;;5052391;28;20063;-65
2023/04/14 11:54:03;;;;;;;1.50;0.90;;;15.30;99.90;;;;;;5052344;28;20032;-65
2023/04/14 11:56:31;;;;;;;1.98;1.00;;;15.60;99.90;;;;;;5052537;28;20040;-64
2023/04/14 11:59:04;;;;;;;1.85;0.82;;;15.10;99.90;;;;;;5052460;28;20119;-65
2023/04/14 12:01:30;;;;;;;2.03;0.75;;;14.90;99.90;;;;;;5051047;28;20041;-64
2023/04/14 12:03:57;;;;;;;2.45;0.90;;;15.40;99.90;;;;;;5052562;28;20045;-64
2023/04/14 12:06:23;;;;;;;3.75;1.10;;;14.70;99.90;;;;;;5052471;28;20074;-64
2023/04/14 12:09:02;;;;;;;6.10;0.88;;;14.80;99.90;;;;;;5050941;28;20037;-64
2023/04/14 12:11:28;;;;;;;4.40;1.02;;;14.60;99.90;;;;;;5052414;28;20081;-64
2023/04/14 12:13:55;;;;;;;1.58;0.82;;;14.90;99.90;;;;;;5054266;28;20045;-65
2023/04/14 12:16:22;;;;;;;3.35;1.02;;;14.90;99.90;;;;;;5056360;28;20095;-65
2023/04/14 12:18:48;;;;;;;2.97;1.00;;;14.80;99.90;;;;;;5056341;28;20041;-65
2023/04/14 12:21:18;;;;;;;2.25;0.93;;;15.00;99.90;;;;;;5055969;28;20033;-65
2023/04/14 12:23:47;;;;;;;3.97;1.20;;;14.70;99.90;;;;;;5056321;28;20036;-65
2023/04/14 12:26:14;;;;;;;3.47;0.85;;;15.10;99.90;;;;;;5056157;28;20037;-65
2023/04/14 12:28:43;;;;;;;2.67;1.30;;;15.30;99.90;;;;;;5056068;28;20136;-65
2023/04/14 12:31:10;;;;;;;3.55;1.00;;;15.20;99.90;;;;;;5056075;28;20072;-66
2023/04/14 12:33:36;;;;;;;1.35;0.70;;;15.20;99.90;;;;;;5055759;28;20110;-65
2023/04/14 12:36:11;;;;;;;2.15;0.90;;;15.10;99.90;;;;;;5056079;28;20041;-65
2023/04/14 12:38:37;;;;;;;3.70;1.10;;;14.90;99.90;;;;;;5055937;28;20400;-66
2023/04/14 12:41:03;;;;;;;2.20;1.15;;;15.10;99.90;;;;;;5055897;28;20060;-66
2023/04/14 12:43:31;;;;;;;2.42;1.40;;;15.20;99.90;;;;;;5055533;28;20037;-67
2023/04/14 12:45:57;;;;;;;3.33;1.55;;;16.00;99.90;;;;;;5055793;28;20048;-67
2023/04/14 12:48:47;;;;;;;3.33;1.10;;;15.40;99.90;;;;;;5055704;28;20095;-68
2023/04/14 12:51:17;;;;;;;5.00;1.40;;;15.00;99.90;;;;;;5055678;28;20083;-67
2023/04/14 12:53:43;;;;;;;3.23;1.10;;;;;;;;;;5055677;28;20089;-67
2023/04/14 12:56:11;;;;;;;2.28;1.30;;;;;;;;;;5055238;28;20044;-67
2023/04/14 12:58:37;;;;;;;3.72;1.15;;;;;;;;;;5055294;28;20041;-66
2023/04/14 13:01:07;;;;;;;1.27;1.00;;;;;;;;;;5055461;28;20040;-66
2023/04/14 13:03:44;;;;;;;3.75;1.23;;;;;;;;;;5055565;28;20037;-66
2023/04/14 13:06:10;;;;;;;3.75;1.35;;;;;;;;;;5037397;28;20037;-67
2023/04/14 13:08:36;;;;;;;2.05;1.08;;;16.00;99.90;;;;;;5054980;28;20049;-65